Canon City, CO

3:08 AM MDT on August 28, 2014 (GMT -0600)
Dawson Ranch | Change Station
CLOSE
Current Station
Personal Weather Station
Location: Canon City, CO
Elevation: 5804 ft
Nearby Weather Stations

Elev 5804 ft 38.40 °N, 105.26 °W | Updated 3 minutes ago

Clear
Clear
57.7 °F
Feels Like 57.7 °F
N
2.2
Wind Variable Wind from North
Gusts 3.1 mph

Today
High -- | Low -- °F
--% Chance of Precip.
Yesterday
High -- | Low -- °F
Precip. -- in
6:27 AM 7:37 PM
Waxing Crescent, 7% visible
Pressure 29.95 in
Visibility 10.0 miles
Clouds Clear
Dew Point 40 °F
Humidity 52%
Rainfall 0.00 in
Snow Depth Not available.
UV 0 out of 12
Pollen 8.10 out of 12
Air Quality Not available.
Flu Activity Not available.
METAR KPUB 280853Z AUTO 00000KT 10SM CLR 16/10 A3013 RMK AO2 SLP141 T01560100 53007

More Conditions Fewer Conditions

Pressure 29.95 in
Visibility 10.0 miles
Clouds Clear
Dew Point 40 °F
Humidity 52%
Rainfall 0.00 in
Snow Depth Not available.
UV 0 out of 12
Pollen 8.10 out of 12
Air Quality Not available.
Flu Activity Not available.
METAR KPUB 280853Z AUTO 00000KT 10SM CLR 16/10 A3013 RMK AO2 SLP141 T01560100 53007

More Conditions Fewer Conditions

10-Day Weather Forecast

Almanac

Astronomy

Aug. 28, 2014 Rise Set
Actual Time 6:27 AM MDT 7:37 PM MDT
Civil Twilight 6:00 AM MDT 8:04 PM MDT
Nautical Twilight 5:27 AM MDT 8:37 PM MDT
Astronomical Twilight 4:53 AM MDT 9:10 PM MDT
Moon 9:19 AM MDT 9:05 PM MDT
Length of Visible Light 14h 04m
Length of Day
13h 09m
Tomorrow will be 2m 21s shorter.
Waxing Crescent, 7% of the Moon is Illuminated
Today
Waxing Crescent
Sep 2
First Quarter
Sep 8
Full
Sep 15
Last Quarter
Sep 24
New

Today's Extremes

State Highs State Lows

Community

WunderPhotos

Upload Photos

1,747,918 photos uploaded!

Nearby

Snow Depth

Station Depth Elevation
Glen Cove 0 in 11460 ft
South Colony 0 in 10800 ft
Medano Pass 0 in 9620 ft
Porphyry Creek 0 in 10760 ft
Rough And Tumble 1 in 10360 ft

Earthquake Activity

City Distance Mag. Time & Date
No recent earthquake activity has been reported nearby.
Minimum magnitude displayed is 2.5.

Coastal Water Temperatures

Place Temperature
No Stations Reporting

Nearby Weather Stations